sensor_id;sensor_type;location;lat;lon;timestamp;P1;durP1;ratioP1;P2;durP2;ratioP2
59127;SDS011;44912;52.754;5.994;2023-02-19T00:01:07;46.90;;;17.02;;
59127;SDS011;44912;52.754;5.994;2023-02-19T00:03:34;39.50;;;15.27;;
59127;SDS011;44912;52.754;5.994;2023-02-19T00:06:01;36.17;;;15.63;;
59127;SDS011;44912;52.754;5.994;2023-02-19T00:08:32;39.33;;;14.68;;
59127;SDS011;44912;52.754;5.994;2023-02-19T00:11:08;35.83;;;14.93;;
59127;SDS011;44912;52.754;5.994;2023-02-19T00:13:46;37.80;;;14.82;;
59127;SDS011;44912;52.754;5.994;2023-02-19T00:16:16;39.40;;;13.13;;
59127;SDS011;44912;52.754;5.994;2023-02-19T00:18:43;33.42;;;13.35;;
59127;SDS011;44912;52.754;5.994;2023-02-19T00:21:09;38.65;;;14.48;;
59127;SDS011;44912;52.754;5.994;2023-02-19T00:23:36;37.03;;;12.55;;
59127;SDS011;44912;52.754;5.994;2023-02-19T00:26:05;33.90;;;13.07;;
59127;SDS011;44912;52.754;5.994;2023-02-19T00:28:35;36.83;;;13.23;;
59127;SDS011;44912;52.754;5.994;2023-02-19T00:31:08;32.80;;;13.80;;
59127;SDS011;44912;52.754;5.994;2023-02-19T00:33:45;34.17;;;13.10;;
59127;SDS011;44912;52.754;5.994;2023-02-19T00:36:12;35.55;;;13.13;;
59127;SDS011;44912;52.754;5.994;2023-02-19T00:38:38;38.15;;;12.55;;
59127;SDS011;44912;52.754;5.994;2023-02-19T00:41:05;32.92;;;11.43;;
59127;SDS011;44912;52.754;5.994;2023-02-19T00:46:29;31.00;;;11.43;;
59127;SDS011;44912;52.754;5.994;2023-02-19T00:48:57;28.40;;;10.75;;
59127;SDS011;44912;52.754;5.994;2023-02-19T00:51:24;31.08;;;11.45;;
59127;SDS011;44912;52.754;5.994;2023-02-19T00:53:51;29.35;;;10.43;;
59127;SDS011;44912;52.754;5.994;2023-02-19T00:56:17;29.70;;;10.35;;
59127;SDS011;44912;52.754;5.994;2023-02-19T00:58:43;24.25;;;8.15;;
59127;SDS011;44912;52.754;5.994;2023-02-19T01:01:09;21.33;;;8.10;;
59127;SDS011;44912;52.754;5.994;2023-02-19T01:03:36;20.92;;;7.07;;
59127;SDS011;44912;52.754;5.994;2023-02-19T01:06:02;17.20;;;5.65;;
59127;SDS011;44912;52.754;5.994;2023-02-19T01:08:29;19.58;;;6.35;;
59127;SDS011;44912;52.754;5.994;2023-02-19T01:10:56;13.32;;;5.90;;
59127;SDS011;44912;52.754;5.994;2023-02-19T01:13:22;14.82;;;6.13;;
59127;SDS011;44912;52.754;5.994;2023-02-19T01:15:48;18.13;;;5.70;;
59127;SDS011;44912;52.754;5.994;2023-02-19T01:18:13;16.38;;;5.60;;
59127;SDS011;44912;52.754;5.994;2023-02-19T01:20:40;15.23;;;5.68;;
59127;SDS011;44912;52.754;5.994;2023-02-19T01:23:07;19.90;;;6.00;;
59127;SDS011;44912;52.754;5.994;2023-02-19T01:25:37;12.75;;;5.28;;
59127;SDS011;44912;52.754;5.994;2023-02-19T01:28:06;12.93;;;4.43;;
59127;SDS011;44912;52.754;5.994;2023-02-19T01:30:33;15.90;;;5.32;;
59127;SDS011;44912;52.754;5.994;2023-02-19T01:33:00;17.17;;;5.90;;
59127;SDS011;44912;52.754;5.994;2023-02-19T01:35:26;15.48;;;4.88;;
59127;SDS011;44912;52.754;5.994;2023-02-19T01:37:51;13.38;;;4.72;;
59127;SDS011;44912;52.754;5.994;2023-02-19T01:40:17;12.60;;;4.50;;
59127;SDS011;44912;52.754;5.994;2023-02-19T01:42:42;14.60;;;6.07;;
59127;SDS011;44912;52.754;5.994;2023-02-19T01:45:18;16.20;;;5.88;;
59127;SDS011;44912;52.754;5.994;2023-02-19T01:47:45;11.75;;;4.90;;
59127;SDS011;44912;52.754;5.994;2023-02-19T01:50:14;13.57;;;5.10;;
59127;SDS011;44912;52.754;5.994;2023-02-19T01:52:40;13.57;;;5.50;;
59127;SDS011;44912;52.754;5.994;2023-02-19T01:55:06;15.98;;;5.30;;
59127;SDS011;44912;52.754;5.994;2023-02-19T01:57:36;12.07;;;5.88;;
59127;SDS011;44912;52.754;5.994;2023-02-19T02:00:08;12.68;;;4.50;;
59127;SDS011;44912;52.754;5.994;2023-02-19T02:02:35;13.38;;;4.82;;
59127;SDS011;44912;52.754;5.994;2023-02-19T02:05:03;12.02;;;4.03;;
59127;SDS011;44912;52.754;5.994;2023-02-19T02:07:30;16.67;;;4.85;;
59127;SDS011;44912;52.754;5.994;2023-02-19T02:10:14;14.32;;;4.88;;
59127;SDS011;44912;52.754;5.994;2023-02-19T02:12:49;15.77;;;6.25;;
59127;SDS011;44912;52.754;5.994;2023-02-19T02:15:16;18.90;;;6.10;;
59127;SDS011;44912;52.754;5.994;2023-02-19T02:17:56;12.50;;;4.70;;
59127;SDS011;44912;52.754;5.994;2023-02-19T02:20:49;12.63;;;5.03;;
59127;SDS011;44912;52.754;5.994;2023-02-19T02:25:58;14.70;;;5.25;;
59127;SDS011;44912;52.754;5.994;2023-02-19T02:31:40;15.88;;;8.32;;
59127;SDS011;44912;52.754;5.994;2023-02-19T02:36:53;20.08;;;8.63;;
59127;SDS011;44912;52.754;5.994;2023-02-19T02:39:21;15.65;;;5.68;;
59127;SDS011;44912;52.754;5.994;2023-02-19T02:41:50;16.65;;;6.43;;
59127;SDS011;44912;52.754;5.994;2023-02-19T02:44:39;18.55;;;7.60;;
59127;SDS011;44912;52.754;5.994;2023-02-19T02:47:26;16.90;;;8.88;;
59127;SDS011;44912;52.754;5.994;2023-02-19T02:50:05;16.33;;;7.15;;
59127;SDS011;44912;52.754;5.994;2023-02-19T02:52:33;18.92;;;8.52;;
59127;SDS011;44912;52.754;5.994;2023-02-19T02:55:21;22.05;;;9.75;;
59127;SDS011;44912;52.754;5.994;2023-02-19T02:57:48;18.52;;;7.90;;
59127;SDS011;44912;52.754;5.994;2023-02-19T03:00:13;16.88;;;8.38;;
59127;SDS011;44912;52.754;5.994;2023-02-19T03:02:40;16.15;;;7.32;;
59127;SDS011;44912;52.754;5.994;2023-02-19T03:08:11;17.20;;;7.60;;
59127;SDS011;44912;52.754;5.994;2023-02-19T03:10:44;16.08;;;7.70;;
59127;SDS011;44912;52.754;5.994;2023-02-19T03:13:16;19.88;;;8.80;;
59127;SDS011;44912;52.754;5.994;2023-02-19T03:16:06;18.60;;;7.40;;
59127;SDS011;44912;52.754;5.994;2023-02-19T03:18:54;19.73;;;7.82;;
59127;SDS011;44912;52.754;5.994;2023-02-19T03:21:41;19.13;;;7.70;;
59127;SDS011;44912;52.754;5.994;2023-02-19T03:24:09;20.42;;;9.88;;
59127;SDS011;44912;52.754;5.994;2023-02-19T03:26:57;19.95;;;8.65;;
59127;SDS011;44912;52.754;5.994;2023-02-19T03:29:25;22.52;;;9.02;;
59127;SDS011;44912;52.754;5.994;2023-02-19T03:31:56;22.52;;;8.98;;
59127;SDS011;44912;52.754;5.994;2023-02-19T03:34:25;21.50;;;8.68;;
59127;SDS011;44912;52.754;5.994;2023-02-19T03:37:05;21.42;;;9.38;;
59127;SDS011;44912;52.754;5.994;2023-02-19T03:39:51;22.00;;;9.80;;
59127;SDS011;44912;52.754;5.994;2023-02-19T03:42:34;20.65;;;8.80;;
59127;SDS011;44912;52.754;5.994;2023-02-19T03:45:29;20.92;;;8.30;;
59127;SDS011;44912;52.754;5.994;2023-02-19T03:48:05;21.48;;;8.82;;
59127;SDS011;44912;52.754;5.994;2023-02-19T03:50:53;20.42;;;9.32;;
59127;SDS011;44912;52.754;5.994;2023-02-19T03:53:49;24.70;;;9.30;;
59127;SDS011;44912;52.754;5.994;2023-02-19T03:59:07;23.88;;;10.73;;
59127;SDS011;44912;52.754;5.994;2023-02-19T04:01:40;29.65;;;10.93;;
59127;SDS011;44912;52.754;5.994;2023-02-19T04:04:17;19.48;;;9.15;;
59127;SDS011;44912;52.754;5.994;2023-02-19T04:06:59;24.58;;;12.35;;
59127;SDS011;44912;52.754;5.994;2023-02-19T04:09:27;30.15;;;12.07;;
59127;SDS011;44912;52.754;5.994;2023-02-19T04:11:59;30.52;;;14.38;;
59127;SDS011;44912;52.754;5.994;2023-02-19T04:14:27;33.15;;;13.20;;
59127;SDS011;44912;52.754;5.994;2023-02-19T04:16:59;30.67;;;12.65;;
59127;SDS011;44912;52.754;5.994;2023-02-19T04:19:28;28.10;;;12.73;;
59127;SDS011;44912;52.754;5.994;2023-02-19T04:21:57;31.02;;;13.68;;
59127;SDS011;44912;52.754;5.994;2023-02-19T04:24:28;26.80;;;12.15;;
59127;SDS011;44912;52.754;5.994;2023-02-19T04:26:59;28.73;;;13.02;;
59127;SDS011;44912;52.754;5.994;2023-02-19T04:29:25;29.52;;;12.13;;
59127;SDS011;44912;52.754;5.994;2023-02-19T04:31:50;24.15;;;13.07;;
59127;SDS011;44912;52.754;5.994;2023-02-19T04:34:16;25.42;;;11.65;;
59127;SDS011;44912;52.754;5.994;2023-02-19T04:36:41;24.55;;;11.35;;
59127;SDS011;44912;52.754;5.994;2023-02-19T04:39:07;22.95;;;11.07;;
59127;SDS011;44912;52.754;5.994;2023-02-19T04:41:32;25.38;;;12.32;;
59127;SDS011;44912;52.754;5.994;2023-02-19T04:43:58;23.70;;;12.50;;
59127;SDS011;44912;52.754;5.994;2023-02-19T04:46:23;23.70;;;11.68;;
59127;SDS011;44912;52.754;5.994;2023-02-19T04:48:49;20.45;;;12.63;;
59127;SDS011;44912;52.754;5.994;2023-02-19T04:51:15;21.73;;;10.98;;
59127;SDS011;44912;52.754;5.994;2023-02-19T04:53:41;22.90;;;9.70;;
59127;SDS011;44912;52.754;5.994;2023-02-19T04:56:07;18.27;;;9.13;;
59127;SDS011;44912;52.754;5.994;2023-02-19T04:58:34;21.27;;;10.05;;
59127;SDS011;44912;52.754;5.994;2023-02-19T05:01:00;20.73;;;10.38;;
59127;SDS011;44912;52.754;5.994;2023-02-19T05:03:25;22.58;;;10.60;;
59127;SDS011;44912;52.754;5.994;2023-02-19T05:05:51;23.08;;;9.98;;
59127;SDS011;44912;52.754;5.994;2023-02-19T05:08:17;24.40;;;11.30;;
59127;SDS011;44912;52.754;5.994;2023-02-19T05:10:43;21.75;;;11.60;;
59127;SDS011;44912;52.754;5.994;2023-02-19T05:13:08;31.17;;;12.52;;
59127;SDS011;44912;52.754;5.994;2023-02-19T05:15:34;26.00;;;12.88;;
59127;SDS011;44912;52.754;5.994;2023-02-19T05:17:59;27.95;;;12.68;;
59127;SDS011;44912;52.754;5.994;2023-02-19T05:20:25;34.80;;;13.15;;
59127;SDS011;44912;52.754;5.994;2023-02-19T05:22:51;31.90;;;14.13;;
59127;SDS011;44912;52.754;5.994;2023-02-19T05:25:16;31.77;;;14.85;;
59127;SDS011;44912;52.754;5.994;2023-02-19T05:27:42;37.13;;;15.50;;
59127;SDS011;44912;52.754;5.994;2023-02-19T05:30:08;28.38;;;13.40;;
59127;SDS011;44912;52.754;5.994;2023-02-19T05:32:34;36.65;;;15.18;;
59127;SDS011;44912;52.754;5.994;2023-02-19T05:35:00;43.78;;;16.15;;
59127;SDS011;44912;52.754;5.994;2023-02-19T05:37:26;36.40;;;15.65;;
59127;SDS011;44912;52.754;5.994;2023-02-19T05:39:51;38.00;;;15.07;;
59127;SDS011;44912;52.754;5.994;2023-02-19T05:42:17;47.20;;;14.63;;
59127;SDS011;44912;52.754;5.994;2023-02-19T05:44:42;46.30;;;16.88;;
59127;SDS011;44912;52.754;5.994;2023-02-19T05:47:08;40.30;;;14.77;;
59127;SDS011;44912;52.754;5.994;2023-02-19T05:49:34;39.85;;;15.35;;
59127;SDS011;44912;52.754;5.994;2023-02-19T05:51:59;43.88;;;15.35;;
59127;SDS011;44912;52.754;5.994;2023-02-19T05:54:27;35.50;;;14.77;;
59127;SDS011;44912;52.754;5.994;2023-02-19T05:56:53;26.73;;;12.70;;
59127;SDS011;44912;52.754;5.994;2023-02-19T05:59:20;25.33;;;11.02;;
59127;SDS011;44912;52.754;5.994;2023-02-19T06:01:48;27.10;;;11.40;;
59127;SDS011;44912;52.754;5.994;2023-02-19T06:04:15;20.88;;;9.32;;
59127;SDS011;44912;52.754;5.994;2023-02-19T06:06:43;21.25;;;9.65;;
59127;SDS011;44912;52.754;5.994;2023-02-19T06:09:10;18.05;;;8.77;;
59127;SDS011;44912;52.754;5.994;2023-02-19T06:11:36;17.40;;;8.10;;
59127;SDS011;44912;52.754;5.994;2023-02-19T06:14:02;16.20;;;7.28;;
59127;SDS011;44912;52.754;5.994;2023-02-19T06:16:28;12.80;;;6.13;;
59127;SDS011;44912;52.754;5.994;2023-02-19T06:18:56;13.73;;;6.53;;
59127;SDS011;44912;52.754;5.994;2023-02-19T06:21:22;13.57;;;6.53;;
59127;SDS011;44912;52.754;5.994;2023-02-19T06:23:47;12.65;;;5.38;;
59127;SDS011;44912;52.754;5.994;2023-02-19T06:26:17;11.85;;;5.10;;
59127;SDS011;44912;52.754;5.994;2023-02-19T06:28:47;11.13;;;4.30;;
59127;SDS011;44912;52.754;5.994;2023-02-19T06:31:14;10.50;;;4.50;;
59127;SDS011;44912;52.754;5.994;2023-02-19T06:33:40;10.52;;;4.00;;
59127;SDS011;44912;52.754;5.994;2023-02-19T06:36:06;7.82;;;2.85;;
59127;SDS011;44912;52.754;5.994;2023-02-19T06:38:34;7.22;;;2.65;;
59127;SDS011;44912;52.754;5.994;2023-02-19T06:41:00;8.27;;;2.83;;
59127;SDS011;44912;52.754;5.994;2023-02-19T06:43:27;7.05;;;2.92;;
59127;SDS011;44912;52.754;5.994;2023-02-19T06:45:53;7.45;;;2.97;;
59127;SDS011;44912;52.754;5.994;2023-02-19T06:48:21;8.05;;;3.22;;
59127;SDS011;44912;52.754;5.994;2023-02-19T06:50:47;9.23;;;3.38;;
59127;SDS011;44912;52.754;5.994;2023-02-19T06:53:12;9.30;;;3.10;;
59127;SDS011;44912;52.754;5.994;2023-02-19T06:55:38;7.68;;;3.10;;
59127;SDS011;44912;52.754;5.994;2023-02-19T06:58:04;7.25;;;3.05;;
59127;SDS011;44912;52.754;5.994;2023-02-19T07:00:31;7.07;;;3.28;;
59127;SDS011;44912;52.754;5.994;2023-02-19T07:02:57;8.70;;;3.10;;
59127;SDS011;44912;52.754;5.994;2023-02-19T07:05:22;7.22;;;3.05;;
59127;SDS011;44912;52.754;5.994;2023-02-19T07:07:48;6.28;;;2.90;;
59127;SDS011;44912;52.754;5.994;2023-02-19T07:10:14;6.95;;;2.90;;
59127;SDS011;44912;52.754;5.994;2023-02-19T07:12:40;6.53;;;2.90;;
59127;SDS011;44912;52.754;5.994;2023-02-19T07:15:06;6.75;;;3.08;;
59127;SDS011;44912;52.754;5.994;2023-02-19T07:17:32;7.40;;;2.80;;
59127;SDS011;44912;52.754;5.994;2023-02-19T07:19:58;7.13;;;3.03;;
59127;SDS011;44912;52.754;5.994;2023-02-19T07:22:24;7.00;;;3.10;;
59127;SDS011;44912;52.754;5.994;2023-02-19T07:24:50;6.50;;;3.20;;
59127;SDS011;44912;52.754;5.994;2023-02-19T07:27:15;7.72;;;3.40;;
59127;SDS011;44912;52.754;5.994;2023-02-19T07:29:41;7.45;;;3.50;;
59127;SDS011;44912;52.754;5.994;2023-02-19T07:32:06;7.60;;;3.83;;
59127;SDS011;44912;52.754;5.994;2023-02-19T07:34:32;8.05;;;3.60;;
59127;SDS011;44912;52.754;5.994;2023-02-19T07:36:57;6.72;;;3.70;;
59127;SDS011;44912;52.754;5.994;2023-02-19T07:39:23;8.80;;;4.65;;
59127;SDS011;44912;52.754;5.994;2023-02-19T07:41:48;9.50;;;3.95;;
59127;SDS011;44912;52.754;5.994;2023-02-19T07:44:14;7.40;;;3.80;;
59127;SDS011;44912;52.754;5.994;2023-02-19T07:46:40;7.15;;;2.90;;
59127;SDS011;44912;52.754;5.994;2023-02-19T07:49:07;5.18;;;2.50;;
59127;SDS011;44912;52.754;5.994;2023-02-19T07:51:32;6.07;;;2.42;;
59127;SDS011;44912;52.754;5.994;2023-02-19T07:53:58;4.88;;;2.30;;
59127;SDS011;44912;52.754;5.994;2023-02-19T07:56:23;3.78;;;2.08;;
59127;SDS011;44912;52.754;5.994;2023-02-19T07:58:49;3.85;;;1.95;;
59127;SDS011;44912;52.754;5.994;2023-02-19T08:01:16;3.40;;;1.90;;
59127;SDS011;44912;52.754;5.994;2023-02-19T08:03:43;5.40;;;2.22;;
59127;SDS011;44912;52.754;5.994;2023-02-19T08:06:10;5.07;;;1.90;;
59127;SDS011;44912;52.754;5.994;2023-02-19T08:08:36;3.17;;;1.50;;
59127;SDS011;44912;52.754;5.994;2023-02-19T08:11:04;3.58;;;1.60;;
59127;SDS011;44912;52.754;5.994;2023-02-19T08:13:49;3.05;;;1.50;;
59127;SDS011;44912;52.754;5.994;2023-02-19T08:16:16;3.22;;;1.35;;
59127;SDS011;44912;52.754;5.994;2023-02-19T08:18:44;3.13;;;1.40;;
59127;SDS011;44912;52.754;5.994;2023-02-19T08:21:12;3.15;;;1.35;;
59127;SDS011;44912;52.754;5.994;2023-02-19T08:23:38;2.75;;;1.20;;
59127;SDS011;44912;52.754;5.994;2023-02-19T08:26:04;1.67;;;1.00;;
59127;SDS011;44912;52.754;5.994;2023-02-19T08:28:31;2.50;;;0.80;;
59127;SDS011;44912;52.754;5.994;2023-02-19T08:31:00;3.10;;;1.10;;
59127;SDS011;44912;52.754;5.994;2023-02-19T08:33:28;2.47;;;1.10;;
59127;SDS011;44912;52.754;5.994;2023-02-19T08:35:54;2.08;;;1.20;;
59127;SDS011;44912;52.754;5.994;2023-02-19T08:38:20;2.97;;;1.10;;
59127;SDS011;44912;52.754;5.994;2023-02-19T08:40:46;3.35;;;1.20;;
59127;SDS011;44912;52.754;5.994;2023-02-19T08:43:12;2.47;;;0.95;;
59127;SDS011;44912;52.754;5.994;2023-02-19T08:45:41;2.28;;;1.00;;
59127;SDS011;44912;52.754;5.994;2023-02-19T08:48:09;1.67;;;0.90;;
59127;SDS011;44912;52.754;5.994;2023-02-19T08:50:35;2.63;;;1.10;;
59127;SDS011;44912;52.754;5.994;2023-02-19T08:53:02;3.03;;;1.20;;
59127;SDS011;44912;52.754;5.994;2023-02-19T08:55:28;2.55;;;1.30;;
59127;SDS011;44912;52.754;5.994;2023-02-19T08:57:54;2.85;;;1.25;;
59127;SDS011;44912;52.754;5.994;2023-02-19T09:00:19;1.88;;;1.02;;
59127;SDS011;44912;52.754;5.994;2023-02-19T09:02:46;2.00;;;1.10;;
59127;SDS011;44912;52.754;5.994;2023-02-19T09:05:12;2.33;;;0.98;;
59127;SDS011;44912;52.754;5.994;2023-02-19T09:07:38;2.05;;;0.90;;
59127;SDS011;44912;52.754;5.994;2023-02-19T09:10:05;3.10;;;1.00;;
59127;SDS011;44912;52.754;5.994;2023-02-19T09:12:31;3.60;;;1.05;;
59127;SDS011;44912;52.754;5.994;2023-02-19T09:14:57;2.58;;;1.10;;
59127;SDS011;44912;52.754;5.994;2023-02-19T09:17:23;1.25;;;0.82;;
59127;SDS011;44912;52.754;5.994;2023-02-19T09:19:48;2.60;;;1.30;;
59127;SDS011;44912;52.754;5.994;2023-02-19T09:22:14;2.75;;;1.10;;
59127;SDS011;44912;52.754;5.994;2023-02-19T09:24:41;1.73;;;0.95;;
59127;SDS011;44912;52.754;5.994;2023-02-19T09:27:07;1.83;;;0.90;;
59127;SDS011;44912;52.754;5.994;2023-02-19T09:29:33;1.98;;;0.98;;
59127;SDS011;44912;52.754;5.994;2023-02-19T09:31:59;2.15;;;1.00;;
59127;SDS011;44912;52.754;5.994;2023-02-19T09:34:25;3.72;;;1.15;;
59127;SDS011;44912;52.754;5.994;2023-02-19T09:36:52;1.73;;;0.80;;
59127;SDS011;44912;52.754;5.994;2023-02-19T09:39:19;1.55;;;0.80;;
59127;SDS011;44912;52.754;5.994;2023-02-19T09:41:52;2.40;;;0.90;;
59127;SDS011;44912;52.754;5.994;2023-02-19T09:44:34;1.17;;;0.80;;
59127;SDS011;44912;52.754;5.994;2023-02-19T09:47:02;1.95;;;0.80;;
59127;SDS011;44912;52.754;5.994;2023-02-19T09:49:37;1.85;;;0.85;;
59127;SDS011;44912;52.754;5.994;2023-02-19T09:55:14;0.80;;;0.80;;
59127;SDS011;44912;52.754;5.994;2023-02-19T09:57:42;1.40;;;0.80;;
59127;SDS011;44912;52.754;5.994;2023-02-19T10:02:45;1.42;;;0.80;;
59127;SDS011;44912;52.754;5.994;2023-02-19T10:05:14;2.50;;;0.80;;
59127;SDS011;44912;52.754;5.994;2023-02-19T10:07:42;2.10;;;0.80;;
59127;SDS011;44912;52.754;5.994;2023-02-19T10:12:39;2.30;;;0.90;;
59127;SDS011;44912;52.754;5.994;2023-02-19T10:15:25;0.90;;;0.80;;
59127;SDS011;44912;52.754;5.994;2023-02-19T10:17:56;2.30;;;0.90;;
59127;SDS011;44912;52.754;5.994;2023-02-19T10:20:23;0.90;;;0.80;;
59127;SDS011;44912;52.754;5.994;2023-02-19T10:22:59;1.58;;;0.90;;
59127;SDS011;44912;52.754;5.994;2023-02-19T10:25:27;2.90;;;0.90;;
59127;SDS011;44912;52.754;5.994;2023-02-19T10:27:56;1.17;;;0.85;;
59127;SDS011;44912;52.754;5.994;2023-02-19T10:30:24;0.95;;;0.70;;
59127;SDS011;44912;52.754;5.994;2023-02-19T10:33:02;3.58;;;0.85;;
59127;SDS011;44912;52.754;5.994;2023-02-19T10:35:36;2.08;;;0.60;;
59127;SDS011;44912;52.754;5.994;2023-02-19T10:38:15;0.95;;;0.70;;
59127;SDS011;44912;52.754;5.994;2023-02-19T10:40:43;1.65;;;0.70;;
59127;SDS011;44912;52.754;5.994;2023-02-19T10:43:12;1.38;;;0.63;;
59127;SDS011;44912;52.754;5.994;2023-02-19T10:48:27;1.08;;;0.70;;
59127;SDS011;44912;52.754;5.994;2023-02-19T10:54:04;2.15;;;0.80;;
59127;SDS011;44912;52.754;5.994;2023-02-19T10:56:28;1.45;;;0.77;;
59127;SDS011;44912;52.754;5.994;2023-02-19T10:58:55;1.42;;;0.70;;
59127;SDS011;44912;52.754;5.994;2023-02-19T11:04:23;2.67;;;0.90;;
59127;SDS011;44912;52.754;5.994;2023-02-19T11:09:38;1.58;;;0.70;;
59127;SDS011;44912;52.754;5.994;2023-02-19T11:12:06;1.67;;;0.73;;
59127;SDS011;44912;52.754;5.994;2023-02-19T11:14:33;2.03;;;0.63;;
59127;SDS011;44912;52.754;5.994;2023-02-19T11:17:00;0.88;;;0.43;;
59127;SDS011;44912;52.754;5.994;2023-02-19T11:24:53;1.27;;;0.70;;
59127;SDS011;44912;52.754;5.994;2023-02-19T11:27:20;1.92;;;0.70;;
59127;SDS011;44912;52.754;5.994;2023-02-19T11:29:47;1.15;;;0.63;;
59127;SDS011;44912;52.754;5.994;2023-02-19T11:34:44;2.13;;;0.68;;
59127;SDS011;44912;52.754;5.994;2023-02-19T11:37:18;2.22;;;0.70;;
59127;SDS011;44912;52.754;5.994;2023-02-19T11:39:48;2.63;;;0.70;;
59127;SDS011;44912;52.754;5.994;2023-02-19T12:03:48;2.22;;;0.93;;
59127;SDS011;44912;52.754;5.994;2023-02-19T12:06:30;1.85;;;0.68;;
59127;SDS011;44912;52.754;5.994;2023-02-19T12:17:12;2.42;;;0.70;;
59127;SDS011;44912;52.754;5.994;2023-02-19T12:22:43;1.75;;;0.70;;
59127;SDS011;44912;52.754;5.994;2023-02-19T12:25:24;3.15;;;0.80;;
59127;SDS011;44912;52.754;5.994;2023-02-19T12:31:07;2.45;;;0.80;;
59127;SDS011;44912;52.754;5.994;2023-02-19T12:36:46;1.08;;;0.68;;
59127;SDS011;44912;52.754;5.994;2023-02-19T12:42:30;2.42;;;0.90;;
59127;SDS011;44912;52.754;5.994;2023-02-19T12:45:07;1.35;;;0.80;;
59127;SDS011;44912;52.754;5.994;2023-02-19T12:47:44;2.00;;;0.65;;
59127;SDS011;44912;52.754;5.994;2023-02-19T12:50:25;2.85;;;0.90;;
59127;SDS011;44912;52.754;5.994;2023-02-19T12:52:54;2.90;;;0.68;;
59127;SDS011;44912;52.754;5.994;2023-02-19T12:55:31;1.80;;;0.60;;
59127;SDS011;44912;52.754;5.994;2023-02-19T12:58:09;2.35;;;0.80;;
59127;SDS011;44912;52.754;5.994;2023-02-19T13:00:42;2.30;;;0.70;;
59127;SDS011;44912;52.754;5.994;2023-02-19T13:03:13;3.92;;;0.73;;
59127;SDS011;44912;52.754;5.994;2023-02-19T13:11:31;1.15;;;0.65;;
59127;SDS011;44912;52.754;5.994;2023-02-19T13:14:03;1.63;;;0.60;;
59127;SDS011;44912;52.754;5.994;2023-02-19T13:19:03;1.80;;;0.70;;
59127;SDS011;44912;52.754;5.994;2023-02-19T13:21:33;1.63;;;0.70;;
59127;SDS011;44912;52.754;5.994;2023-02-19T13:24:26;3.50;;;0.73;;
59127;SDS011;44912;52.754;5.994;2023-02-19T13:30:08;2.17;;;0.73;;
59127;SDS011;44912;52.754;5.994;2023-02-19T13:38:32;1.50;;;0.80;;
59127;SDS011;44912;52.754;5.994;2023-02-19T13:41:16;2.25;;;0.90;;
59127;SDS011;44912;52.754;5.994;2023-02-19T13:44:01;0.95;;;0.73;;
59127;SDS011;44912;52.754;5.994;2023-02-19T13:46:33;3.22;;;0.80;;
59127;SDS011;44912;52.754;5.994;2023-02-19T13:50:02;2.60;;;0.90;;
59127;SDS011;44912;52.754;5.994;2023-02-19T13:52:00;1.88;;;0.77;;
59127;SDS011;44912;52.754;5.994;2023-02-19T13:54:31;4.55;;;0.85;;
59127;SDS011;44912;52.754;5.994;2023-02-19T13:59:57;2.20;;;0.70;;
59127;SDS011;44912;52.754;5.994;2023-02-19T14:02:24;3.83;;;0.90;;
59127;SDS011;44912;52.754;5.994;2023-02-19T14:04:56;2.75;;;1.10;;
59127;SDS011;44912;52.754;5.994;2023-02-19T14:10:01;3.05;;;1.00;;
59127;SDS011;44912;52.754;5.994;2023-02-19T14:12:34;3.67;;;1.17;;
59127;SDS011;44912;52.754;5.994;2023-02-19T14:18:00;3.25;;;1.30;;
59127;SDS011;44912;52.754;5.994;2023-02-19T14:20:40;4.07;;;1.45;;
59127;SDS011;44912;52.754;5.994;2023-02-19T14:23:42;2.63;;;1.30;;
59127;SDS011;44912;52.754;5.994;2023-02-19T14:26:01;3.40;;;1.50;;
59127;SDS011;44912;52.754;5.994;2023-02-19T14:28:33;5.15;;;1.60;;
59127;SDS011;44912;52.754;5.994;2023-02-19T14:31:09;5.15;;;1.67;;
59127;SDS011;44912;52.754;5.994;2023-02-19T14:33:45;3.05;;;1.40;;
59127;SDS011;44912;52.754;5.994;2023-02-19T14:36:30;3.95;;;1.65;;
59127;SDS011;44912;52.754;5.994;2023-02-19T14:41:29;4.28;;;1.67;;
59127;SDS011;44912;52.754;5.994;2023-02-19T14:43:57;4.25;;;1.73;;
59127;SDS011;44912;52.754;5.994;2023-02-19T14:46:32;4.93;;;1.83;;
59127;SDS011;44912;52.754;5.994;2023-02-19T14:49:46;4.00;;;1.30;;
59127;SDS011;44912;52.754;5.994;2023-02-19T14:51:57;6.40;;;1.58;;
59127;SDS011;44912;52.754;5.994;2023-02-19T14:54:36;4.07;;;1.38;;
59127;SDS011;44912;52.754;5.994;2023-02-19T14:57:12;2.55;;;1.17;;
59127;SDS011;44912;52.754;5.994;2023-02-19T14:59:50;6.07;;;1.33;;
59127;SDS011;44912;52.754;5.994;2023-02-19T15:02:26;3.05;;;1.20;;
59127;SDS011;44912;52.754;5.994;2023-02-19T15:04:54;5.18;;;1.30;;
59127;SDS011;44912;52.754;5.994;2023-02-19T15:07:21;3.63;;;1.30;;
59127;SDS011;44912;52.754;5.994;2023-02-19T15:09:51;6.18;;;1.27;;
59127;SDS011;44912;52.754;5.994;2023-02-19T15:12:21;4.28;;;1.10;;
59127;SDS011;44912;52.754;5.994;2023-02-19T15:14:52;3.97;;;1.20;;
59127;SDS011;44912;52.754;5.994;2023-02-19T15:17:26;4.72;;;1.30;;
59127;SDS011;44912;52.754;5.994;2023-02-19T15:19:54;2.85;;;0.90;;
59127;SDS011;44912;52.754;5.994;2023-02-19T15:22:23;3.25;;;0.80;;
59127;SDS011;44912;52.754;5.994;2023-02-19T15:24:50;3.60;;;0.93;;
59127;SDS011;44912;52.754;5.994;2023-02-19T15:27:16;3.03;;;0.90;;
59127;SDS011;44912;52.754;5.994;2023-02-19T15:29:45;6.07;;;1.00;;
59127;SDS011;44912;52.754;5.994;2023-02-19T15:32:16;3.30;;;0.90;;
59127;SDS011;44912;52.754;5.994;2023-02-19T15:37:22;3.95;;;1.10;;
59127;SDS011;44912;52.754;5.994;2023-02-19T15:39:58;3.78;;;0.95;;
59127;SDS011;44912;52.754;5.994;2023-02-19T15:42:30;5.63;;;1.17;;
59127;SDS011;44912;52.754;5.994;2023-02-19T15:45:06;3.50;;;0.90;;
59127;SDS011;44912;52.754;5.994;2023-02-19T15:47:54;4.20;;;1.00;;
59127;SDS011;44912;52.754;5.994;2023-02-19T15:50:24;2.90;;;0.98;;
59127;SDS011;44912;52.754;5.994;2023-02-19T15:53:02;4.97;;;1.17;;
59127;SDS011;44912;52.754;5.994;2023-02-19T15:55:38;3.92;;;0.90;;
59127;SDS011;44912;52.754;5.994;2023-02-19T15:58:22;2.60;;;1.00;;
59127;SDS011;44912;52.754;5.994;2023-02-19T16:03:22;5.10;;;1.20;;
59127;SDS011;44912;52.754;5.994;2023-02-19T16:08:38;5.07;;;1.00;;
59127;SDS011;44912;52.754;5.994;2023-02-19T16:11:17;6.40;;;1.38;;
59127;SDS011;44912;52.754;5.994;2023-02-19T16:13:52;4.47;;;1.10;;
59127;SDS011;44912;52.754;5.994;2023-02-19T16:16:38;2.92;;;1.10;;
59127;SDS011;44912;52.754;5.994;2023-02-19T16:19:05;4.82;;;1.05;;
59127;SDS011;44912;52.754;5.994;2023-02-19T16:21:31;3.88;;;0.98;;
59127;SDS011;44912;52.754;5.994;2023-02-19T16:24:02;6.43;;;0.98;;
59127;SDS011;44912;52.754;5.994;2023-02-19T16:26:40;6.47;;;1.20;;
59127;SDS011;44912;52.754;5.994;2023-02-19T16:29:15;6.00;;;1.00;;
59127;SDS011;44912;52.754;5.994;2023-02-19T16:31:47;6.43;;;1.65;;
59127;SDS011;44912;52.754;5.994;2023-02-19T16:34:29;4.82;;;1.00;;
59127;SDS011;44912;52.754;5.994;2023-02-19T16:36:59;4.35;;;0.85;;
59127;SDS011;44912;52.754;5.994;2023-02-19T16:39:25;5.97;;;1.10;;
59127;SDS011;44912;52.754;5.994;2023-02-19T16:46:49;3.08;;;1.02;;
59127;SDS011;44912;52.754;5.994;2023-02-19T16:49:17;5.60;;;1.10;;
59127;SDS011;44912;52.754;5.994;2023-02-19T16:51:43;5.05;;;0.90;;
59127;SDS011;44912;52.754;5.994;2023-02-19T16:54:10;4.40;;;1.20;;
59127;SDS011;44912;52.754;5.994;2023-02-19T16:56:35;5.78;;;1.48;;
59127;SDS011;44912;52.754;5.994;2023-02-19T16:59:01;6.93;;;1.50;;
59127;SDS011;44912;52.754;5.994;2023-02-19T17:01:27;6.40;;;1.33;;
59127;SDS011;44912;52.754;5.994;2023-02-19T17:03:56;5.38;;;1.90;;
59127;SDS011;44912;52.754;5.994;2023-02-19T17:06:24;6.13;;;1.70;;